createdAt,value
2023-01-17T00:00:36.613Z,85.61
2023-01-17T00:02:51.244Z,85.42
2023-01-17T00:05:21.868Z,85.32
2023-01-17T00:07:53.345Z,85.60
2023-01-17T00:10:11.148Z,85.56
2023-01-17T00:12:29.083Z,85.49
2023-01-17T00:14:40.871Z,85.63
2023-01-17T00:16:52.454Z,85.56
2023-01-17T00:19:23.296Z,85.61
2023-01-17T00:21:54.132Z,85.68
2023-01-17T00:24:25.476Z,85.86
2023-01-17T00:26:57.652Z,86.03
2023-01-17T00:29:09.437Z,86.11
2023-01-17T00:31:21.353Z,85.80
2023-01-17T00:33:33.271Z,86.15
2023-01-17T00:35:45.215Z,86.05
2023-01-17T00:38:11.243Z,86.06
2023-01-17T00:40:22.729Z,86.19
2023-01-17T00:42:34.726Z,86.26
2023-01-17T00:45:05.349Z,86.28
2023-01-17T00:47:36.083Z,86.29
2023-01-17T00:50:06.817Z,86.29
2023-01-17T00:52:37.655Z,86.36
2023-01-17T00:55:08.390Z,86.45
2023-01-17T00:57:39.126Z,86.34
2023-01-17T01:00:10.367Z,86.45
2023-01-17T01:02:41.241Z,86.75
2023-01-17T01:05:12.144Z,86.42
2023-01-17T01:07:43.287Z,86.30
2023-01-17T01:10:13.921Z,86.34
2023-01-17T01:12:44.653Z,86.48
2023-01-17T01:15:15.488Z,86.47
2023-01-17T01:17:46.328Z,86.48
2023-01-17T01:20:16.955Z,86.25
2023-01-17T01:22:47.811Z,86.37
2023-01-17T01:25:18.429Z,86.49
2023-01-17T01:27:49.262Z,86.44
2023-01-17T01:30:19.994Z,86.57
2023-01-17T01:32:55.336Z,86.72
2023-01-17T01:35:07.945Z,86.77
2023-01-17T01:37:19.532Z,86.52
2023-01-17T01:39:31.531Z,86.54
2023-01-17T01:41:43.732Z,86.47
2023-01-17T01:43:56.231Z,86.59
2023-01-17T01:46:11.621Z,86.65
2023-01-17T01:48:35.649Z,86.58
2023-01-17T01:50:50.375Z,86.59
2023-01-17T01:53:06.328Z,86.46
2023-01-17T01:55:24.160Z,86.47
2023-01-17T01:57:41.069Z,86.46
2023-01-17T01:59:59.726Z,86.48
2023-01-17T02:02:12.361Z,86.57
2023-01-17T02:04:28.017Z,86.71
2023-01-17T02:06:56.184Z,86.66
2023-01-17T02:09:11.688Z,86.81
2023-01-17T02:11:23.554Z,86.77
2023-01-17T02:13:35.343Z,86.70
2023-01-17T02:16:09.213Z,86.80
2023-01-17T02:18:30.975Z,86.75
2023-01-17T02:20:57.265Z,86.74
2023-01-17T02:23:51.182Z,86.47
2023-01-17T02:26:06.044Z,86.57
2023-01-17T02:28:36.982Z,86.69
2023-01-17T02:30:54.895Z,86.64
2023-01-17T02:33:34.262Z,86.71
2023-01-17T02:35:54.749Z,86.57
2023-01-17T02:38:44.425Z,86.59
2023-01-17T02:41:05.636Z,86.46
2023-01-17T02:43:20.601Z,86.33
2023-01-17T02:45:32.526Z,86.24
2023-01-17T02:47:45.616Z,86.50
2023-01-17T02:50:11.161Z,86.21
2023-01-17T02:52:33.463Z,86.40
2023-01-17T02:55:28.570Z,86.40
2023-01-17T02:57:56.542Z,86.10
2023-01-17T03:00:21.744Z,86.36
2023-01-17T03:03:11.420Z,86.21
2023-01-17T03:05:39.397Z,86.60
2023-01-17T03:07:52.303Z,86.50
2023-01-17T03:10:06.082Z,86.68
2023-01-17T03:12:20.288Z,87.00
2023-01-17T03:14:32.077Z,87.15
2023-01-17T03:16:44.529Z,87.04
2023-01-17T03:18:56.992Z,87.03
2023-01-17T03:21:08.838Z,86.91
2023-01-17T03:23:20.680Z,87.10
2023-01-17T03:25:32.768Z,87.08
2023-01-17T03:27:44.351Z,86.93
2023-01-17T03:29:56.350Z,86.59
2023-01-17T03:32:08.659Z,86.72
2023-01-17T03:34:20.338Z,86.75
2023-01-17T03:36:32.228Z,86.69
2023-01-17T03:38:44.913Z,86.67
2023-01-17T03:40:57.140Z,86.58
2023-01-17T03:43:08.951Z,86.55
2023-01-17T03:45:20.723Z,86.53
2023-01-17T03:47:32.305Z,86.70
2023-01-17T03:49:44.312Z,86.56
2023-01-17T03:51:55.988Z,86.54
2023-01-17T03:54:09.067Z,86.33
2023-01-17T03:56:21.417Z,86.39
2023-01-17T03:58:33.507Z,86.43
2023-01-17T04:00:45.372Z,86.50
2023-01-17T04:02:57.193Z,86.47
2023-01-17T04:05:09.297Z,86.58
2023-01-17T04:07:22.104Z,86.52
2023-01-17T04:09:34.717Z,86.40
2023-01-17T04:11:50.966Z,86.38
2023-01-17T04:14:03.107Z,86.30
2023-01-17T04:16:18.245Z,86.48
2023-01-17T04:18:30.705Z,86.16
2023-01-17T04:20:43.083Z,86.21
2023-01-17T04:22:55.283Z,86.34
2023-01-17T04:25:07.993Z,86.18
2023-01-17T04:27:19.886Z,86.32
2023-01-17T04:29:32.390Z,86.20
2023-01-17T04:31:44.044Z,86.21
2023-01-17T04:33:56.072Z,86.16
2023-01-17T04:36:08.578Z,85.91
2023-01-17T04:38:20.982Z,86.22
2023-01-17T04:40:32.874Z,86.01
2023-01-17T04:42:45.794Z,85.87
2023-01-17T04:44:57.792Z,85.82
2023-01-17T04:47:09.266Z,85.62
2023-01-17T04:49:20.969Z,85.54
2023-01-17T04:51:33.567Z,85.39
2023-01-17T04:53:45.252Z,85.65
2023-01-17T04:55:57.276Z,85.59
2023-01-17T04:58:09.171Z,85.32
2023-01-17T05:00:24.040Z,85.13
2023-01-17T05:02:36.359Z,84.99
2023-01-17T05:04:48.510Z,84.83
2023-01-17T05:07:00.546Z,85.06
2023-01-17T05:09:12.335Z,84.88
2023-01-17T05:11:23.985Z,84.95
2023-01-17T05:13:35.765Z,85.07
2023-01-17T05:15:47.886Z,84.95
2023-01-17T05:17:59.868Z,85.19
2023-01-17T05:20:11.950Z,84.89
2023-01-17T05:22:23.750Z,84.94
2023-01-17T05:24:35.635Z,84.88
2023-01-17T05:26:54.844Z,84.87
2023-01-17T05:29:07.292Z,85.05
2023-01-17T05:31:19.436Z,85.18
2023-01-17T05:33:31.401Z,85.22
2023-01-17T05:35:43.404Z,85.12
2023-01-17T05:37:56.020Z,85.27
2023-01-17T05:40:09.894Z,84.85
2023-01-17T05:42:22.039Z,84.77
2023-01-17T05:44:34.036Z,84.68
2023-01-17T05:46:45.865Z,84.89
2023-01-17T05:48:57.624Z,84.48
2023-01-17T05:51:09.403Z,84.36
2023-01-17T05:53:21.503Z,84.50
2023-01-17T05:55:34.848Z,84.26
2023-01-17T05:57:46.932Z,84.22
2023-01-17T05:59:58.816Z,84.31
2023-01-17T06:02:10.381Z,84.12
2023-01-17T06:04:22.413Z,83.91
2023-01-17T06:06:33.981Z,83.79
2023-01-17T06:08:45.573Z,83.79
2023-01-17T06:10:59.712Z,83.42
2023-01-17T06:13:15.357Z,83.27
2023-01-17T06:15:27.386Z,83.38
2023-01-17T06:17:39.280Z,83.14
2023-01-17T06:19:51.065Z,83.11
2023-01-17T06:22:05.405Z,82.71
2023-01-17T06:24:18.234Z,82.61
2023-01-17T06:26:30.234Z,82.41
2023-01-17T06:28:42.531Z,81.76
2023-01-17T06:30:54.561Z,81.71
2023-01-17T06:33:06.416Z,81.55
2023-01-17T06:35:18.718Z,81.49
2023-01-17T06:37:30.715Z,81.00
2023-01-17T06:39:42.505Z,80.74
2023-01-17T06:41:54.192Z,80.54
2023-01-17T06:44:07.725Z,80.50
2023-01-17T06:46:20.081Z,80.54
2023-01-17T06:48:31.709Z,80.58
2023-01-17T06:50:44.114Z,80.69
2023-01-17T06:52:59.619Z,80.62
2023-01-17T06:55:11.380Z,80.63
2023-01-17T06:57:23.071Z,80.59
2023-01-17T06:59:35.170Z,80.24
2023-01-17T07:01:48.646Z,80.25
2023-01-17T07:04:04.104Z,80.32
2023-01-17T07:06:20.550Z,80.08
2023-01-17T07:08:34.620Z,80.08
2023-01-17T07:10:49.078Z,80.02
2023-01-17T07:13:01.061Z,79.87
2023-01-17T07:15:13.485Z,79.65
2023-01-17T07:17:25.459Z,79.65
2023-01-17T07:19:37.658Z,79.58
2023-01-17T07:21:54.160Z,79.53
2023-01-17T07:24:07.282Z,79.10
2023-01-17T07:26:19.481Z,78.78
2023-01-17T07:28:31.472Z,78.42
2023-01-17T07:30:43.777Z,78.30
2023-01-17T07:32:55.988Z,78.06
2023-01-17T07:35:08.685Z,78.12
2023-01-17T07:37:20.695Z,77.67
2023-01-17T07:39:32.270Z,78.22
2023-01-17T07:41:45.184Z,77.65
2023-01-17T07:43:57.075Z,77.50
2023-01-17T07:46:08.774Z,77.09
2023-01-17T07:48:23.750Z,77.30
2023-01-17T07:50:36.490Z,77.40
2023-01-17T07:52:51.097Z,77.49
2023-01-17T07:55:03.503Z,77.26
2023-01-17T07:57:15.496Z,77.39
2023-01-17T07:59:27.391Z,77.03
2023-01-17T08:01:42.204Z,76.87
2023-01-17T08:03:55.032Z,77.05
2023-01-17T08:06:16.348Z,76.57
2023-01-17T08:08:29.190Z,76.47
2023-01-17T08:10:40.888Z,76.63
2023-01-17T08:12:52.671Z,76.75
2023-01-17T08:15:06.059Z,76.23
2023-01-17T08:17:18.089Z,76.40
2023-01-17T08:19:29.674Z,76.34
2023-01-17T08:21:41.470Z,75.90
2023-01-17T08:23:53.378Z,75.94
2023-01-17T08:26:05.249Z,76.22
2023-01-17T08:28:16.936Z,75.90
2023-01-17T08:30:28.845Z,75.97
2023-01-17T08:32:41.134Z,76.06
2023-01-17T08:34:53.022Z,76.20
2023-01-17T08:37:05.170Z,76.20
2023-01-17T08:39:17.325Z,75.97
2023-01-17T08:41:29.109Z,75.96
2023-01-17T08:43:41.103Z,76.06
2023-01-17T08:45:56.203Z,75.89
2023-01-17T08:48:08.061Z,75.79
2023-01-17T08:50:22.973Z,75.47
2023-01-17T08:52:36.254Z,75.69
2023-01-17T08:54:48.198Z,75.72
2023-01-17T08:56:59.931Z,75.12
2023-01-17T08:59:12.502Z,75.18
2023-01-17T09:01:24.723Z,75.08
2023-01-17T09:03:38.908Z,74.79
2023-01-17T09:06:11.685Z,74.62
2023-01-17T09:08:23.981Z,74.72
2023-01-17T09:10:36.290Z,74.89
2023-01-17T09:12:48.483Z,74.94
2023-01-17T09:15:40.779Z,74.71
2023-01-17T09:18:02.927Z,74.53
2023-01-17T09:20:30.509Z,74.92
2023-01-17T09:22:42.826Z,74.25
2023-01-17T09:24:55.752Z,74.23
2023-01-17T09:27:07.543Z,74.22
2023-01-17T09:29:20.744Z,74.35
2023-01-17T09:31:34.285Z,73.98
2023-01-17T09:33:47.709Z,73.86
2023-01-17T09:36:05.641Z,73.95
2023-01-17T09:38:18.059Z,74.08
2023-01-17T09:40:30.772Z,73.74
2023-01-17T09:42:43.942Z,73.59
2023-01-17T09:44:56.995Z,73.77
2023-01-17T09:47:35.682Z,73.41
2023-01-17T09:49:51.602Z,73.36
2023-01-17T09:52:05.636Z,73.58
2023-01-17T09:54:24.620Z,73.14
2023-01-17T09:56:44.576Z,73.32
2023-01-17T09:59:08.613Z,73.15
2023-01-17T10:01:43.423Z,72.82
2023-01-17T10:04:22.633Z,71.63
2023-01-17T10:06:50.687Z,72.70
2023-01-17T10:09:08.551Z,72.50
2023-01-17T10:11:32.802Z,72.28
2023-01-17T10:14:06.403Z,72.05
2023-01-17T10:16:27.570Z,72.04
2023-01-17T10:19:08.359Z,71.93
2023-01-17T10:21:55.800Z,71.11
2023-01-17T10:24:42.621Z,71.12
2023-01-17T10:26:59.015Z,71.30
2023-01-17T10:29:20.050Z,71.07
2023-01-17T10:31:43.577Z,70.64
2023-01-17T10:33:58.454Z,70.38
2023-01-17T10:36:20.600Z,69.63
2023-01-17T10:38:38.560Z,69.22
2023-01-17T10:41:07.742Z,68.42
2023-01-17T10:43:22.884Z,68.04
2023-01-17T10:45:59.899Z,67.96
2023-01-17T10:48:18.953Z,67.92
2023-01-17T10:51:19.765Z,67.79
2023-01-17T10:53:54.093Z,67.20
2023-01-17T10:56:07.517Z,67.50
2023-01-17T10:58:19.608Z,67.46
2023-01-17T11:00:58.340Z,67.61
2023-01-17T11:03:12.618Z,67.38
2023-01-17T11:05:29.500Z,67.47
2023-01-17T11:07:57.662Z,67.40
2023-01-17T11:10:46.634Z,67.78
2023-01-17T11:12:59.031Z,67.38
2023-01-17T11:15:11.145Z,67.56
2023-01-17T11:17:23.220Z,68.12
2023-01-17T11:19:36.529Z,67.34
2023-01-17T11:21:58.720Z,66.66
2023-01-17T11:24:20.607Z,66.06
2023-01-17T11:26:35.366Z,65.48
2023-01-17T11:28:47.564Z,65.81
2023-01-17T11:31:03.739Z,65.57
2023-01-17T11:33:33.777Z,65.72
2023-01-17T11:35:45.669Z,66.19
2023-01-17T11:38:05.244Z,66.69
2023-01-17T11:40:26.042Z,66.59
2023-01-17T11:42:38.861Z,66.27
2023-01-17T11:44:50.647Z,65.90
2023-01-17T11:47:11.769Z,66.68
2023-01-17T11:49:25.657Z,66.12
2023-01-17T11:51:43.273Z,66.05
2023-01-17T11:54:08.629Z,66.16
2023-01-17T11:56:24.662Z,65.27
2023-01-17T11:58:40.604Z,64.57
2023-01-17T12:01:21.333Z,65.07
2023-01-17T12:04:01.136Z,64.70
2023-01-17T12:06:27.415Z,64.33
2023-01-17T12:08:51.477Z,64.98
2023-01-17T12:11:10.690Z,65.25
2023-01-17T12:14:01.308Z,64.95
2023-01-17T12:16:32.238Z,65.20
2023-01-17T12:18:57.641Z,64.98
2023-01-17T12:21:17.926Z,64.57
2023-01-17T12:23:49.508Z,63.93
2023-01-17T12:26:19.801Z,63.30
2023-01-17T12:28:57.091Z,63.92
2023-01-17T12:31:31.381Z,63.74
2023-01-17T12:34:01.151Z,63.12
2023-01-17T12:36:31.260Z,62.83
2023-01-17T12:38:44.788Z,62.71
2023-01-17T12:41:03.970Z,62.85
2023-01-17T12:43:37.424Z,62.71
2023-01-17T12:45:51.814Z,62.49
2023-01-17T12:48:13.204Z,62.46
2023-01-17T12:50:29.628Z,62.47
2023-01-17T12:53:08.012Z,62.54
2023-01-17T12:55:50.130Z,62.65
2023-01-17T12:58:07.574Z,62.59
2023-01-17T13:00:23.167Z,62.76
2023-01-17T13:02:53.891Z,63.00
2023-01-17T13:05:42.797Z,62.30
2023-01-17T13:07:54.139Z,61.95
2023-01-17T13:10:33.155Z,61.94
2023-01-17T13:12:46.950Z,61.91
2023-01-17T13:15:00.279Z,62.34
2023-01-17T13:17:38.795Z,62.04
2023-01-17T13:19:57.956Z,62.05
2023-01-17T13:22:18.349Z,63.44
2023-01-17T13:24:48.363Z,66.14
2023-01-17T13:27:30.205Z,63.19
2023-01-17T13:30:10.188Z,62.78
2023-01-17T13:32:24.971Z,62.91
2023-01-17T13:35:00.871Z,63.36
2023-01-17T13:37:24.493Z,63.42
2023-01-17T13:40:05.673Z,63.06
2023-01-17T13:43:11.638Z,63.32
2023-01-17T13:45:27.726Z,63.33
2023-01-17T13:47:41.064Z,62.92
2023-01-17T13:49:56.879Z,63.00
2023-01-17T13:52:10.885Z,61.70
2023-01-17T13:54:32.638Z,61.36
2023-01-17T13:56:44.539Z,61.78
2023-01-17T13:59:02.690Z,61.58
2023-01-17T14:01:15.436Z,61.54
2023-01-17T14:03:46.590Z,61.42
2023-01-17T14:05:58.479Z,61.12
2023-01-17T14:08:17.491Z,61.73
2023-01-17T14:10:41.005Z,62.09
2023-01-17T14:12:53.102Z,62.48
2023-01-17T14:18:34.539Z,62.73
2023-01-17T14:20:52.264Z,62.54
2023-01-17T14:23:26.127Z,63.13
2023-01-17T14:25:40.494Z,63.44
2023-01-17T14:27:56.992Z,63.45
2023-01-17T14:30:38.276Z,63.06
2023-01-17T14:33:06.147Z,63.45
2023-01-17T14:35:23.979Z,63.71
2023-01-17T14:37:44.882Z,63.33
2023-01-17T14:40:01.628Z,63.61
2023-01-17T14:42:17.683Z,63.95
2023-01-17T14:44:29.688Z,64.05
2023-01-17T14:46:48.788Z,64.35
2023-01-17T14:49:02.972Z,64.50
2023-01-17T14:51:21.636Z,65.19
2023-01-17T14:53:34.261Z,65.51
2023-01-17T14:55:52.063Z,64.89
2023-01-17T14:58:05.021Z,64.85
2023-01-17T15:00:20.120Z,65.17
2023-01-17T15:02:32.686Z,65.37
2023-01-17T15:04:45.369Z,65.32
2023-01-17T15:06:59.763Z,65.58
2023-01-17T15:09:20.416Z,65.52
2023-01-17T15:11:37.226Z,65.30
2023-01-17T15:14:01.538Z,65.36
2023-01-17T15:16:19.401Z,65.19
2023-01-17T15:18:42.397Z,65.08
2023-01-17T15:21:00.123Z,64.91
2023-01-17T15:23:18.941Z,64.77
2023-01-17T15:25:31.513Z,64.89
2023-01-17T15:27:43.281Z,65.27
2023-01-17T15:29:59.263Z,64.77
2023-01-17T15:32:32.572Z,65.32
2023-01-17T15:34:49.536Z,65.55
2023-01-17T15:37:10.677Z,65.62
2023-01-17T15:39:27.135Z,65.88
2023-01-17T15:41:40.780Z,66.18
2023-01-17T15:43:57.589Z,66.39
2023-01-17T15:46:32.552Z,66.80
2023-01-17T15:48:45.062Z,67.09
2023-01-17T15:51:00.331Z,67.31
2023-01-17T15:53:31.738Z,67.78
2023-01-17T15:55:45.720Z,67.48
2023-01-17T15:57:57.588Z,67.49
2023-01-17T16:00:14.940Z,67.56
2023-01-17T16:02:42.921Z,67.83
2023-01-17T16:04:55.921Z,67.87
2023-01-17T16:07:22.562Z,67.95
2023-01-17T16:09:43.879Z,68.17
2023-01-17T16:11:55.766Z,67.92
2023-01-17T16:14:08.167Z,68.28
2023-01-17T16:16:23.776Z,68.07
2023-01-17T16:18:36.696Z,68.07
2023-01-17T16:21:08.830Z,68.37
2023-01-17T16:23:21.038Z,68.19
2023-01-17T16:25:33.440Z,68.40
2023-01-17T16:27:46.147Z,68.52
2023-01-17T16:29:58.147Z,68.58
2023-01-17T16:32:09.742Z,68.84
2023-01-17T16:34:24.087Z,68.82
2023-01-17T16:36:37.030Z,68.58
2023-01-17T16:38:51.146Z,68.95
2023-01-17T16:41:04.675Z,69.05
2023-01-17T16:43:19.451Z,69.14
2023-01-17T16:45:31.835Z,69.27
2023-01-17T16:47:45.811Z,69.45
2023-01-17T16:49:57.562Z,69.38
2023-01-17T16:52:09.557Z,69.42
2023-01-17T16:54:21.242Z,69.45
2023-01-17T16:56:33.547Z,69.62
2023-01-17T16:58:46.053Z,69.47
2023-01-17T17:00:58.569Z,70.03
2023-01-17T17:03:18.977Z,69.92
2023-01-17T17:05:33.619Z,69.60
2023-01-17T17:07:51.555Z,70.02
2023-01-17T17:10:04.084Z,70.12
2023-01-17T17:12:15.737Z,70.33
2023-01-17T17:14:27.490Z,70.40
2023-01-17T17:16:39.223Z,70.36
2023-01-17T17:18:59.398Z,70.37
2023-01-17T17:21:12.117Z,70.52
2023-01-17T17:23:24.009Z,70.54
2023-01-17T17:25:36.635Z,70.56
2023-01-17T17:27:50.343Z,70.64
2023-01-17T17:30:02.763Z,70.53
2023-01-17T17:32:14.541Z,70.76
2023-01-17T17:34:27.869Z,70.94
2023-01-17T17:36:40.191Z,70.79
2023-01-17T17:38:55.860Z,70.74
2023-01-17T17:41:11.949Z,71.01
2023-01-17T17:43:26.400Z,70.93
2023-01-17T17:45:38.289Z,70.88
2023-01-17T17:47:51.335Z,70.87
2023-01-17T17:50:03.911Z,70.99
2023-01-17T17:52:15.703Z,70.92
2023-01-17T17:54:27.804Z,71.08
2023-01-17T17:56:39.999Z,70.66
2023-01-17T17:58:51.687Z,71.31
2023-01-17T18:01:06.196Z,71.20
2023-01-17T18:03:18.136Z,71.31
2023-01-17T18:05:30.232Z,71.23
2023-01-17T18:07:42.093Z,71.45
2023-01-17T18:09:54.171Z,71.63
2023-01-17T18:12:14.262Z,71.60
2023-01-17T18:14:26.921Z,71.63
2023-01-17T18:16:42.827Z,71.24
2023-01-17T18:18:56.841Z,71.69
2023-01-17T18:21:15.867Z,71.86
2023-01-17T18:23:27.591Z,71.49
2023-01-17T18:25:43.272Z,71.74
2023-01-17T18:27:55.380Z,71.86
2023-01-17T18:30:12.599Z,71.89
2023-01-17T18:32:24.889Z,71.99
2023-01-17T18:34:41.636Z,71.75
2023-01-17T18:36:54.207Z,72.39
2023-01-17T18:39:15.458Z,72.45
2023-01-17T18:41:31.127Z,72.81
2023-01-17T18:43:43.888Z,72.64
2023-01-17T18:45:55.802Z,72.69
2023-01-17T18:48:07.798Z,72.91
2023-01-17T18:50:19.483Z,73.23
2023-01-17T18:52:31.280Z,73.55
2023-01-17T18:54:43.368Z,73.16
2023-01-17T18:56:55.992Z,73.39
2023-01-17T18:59:12.683Z,73.59
2023-01-17T19:01:30.791Z,73.59
2023-01-17T19:03:44.531Z,73.81
2023-01-17T19:06:01.823Z,73.95
2023-01-17T19:08:13.367Z,74.08
2023-01-17T19:10:26.083Z,74.03
2023-01-17T19:12:37.964Z,74.09
2023-01-17T19:14:49.860Z,74.71
2023-01-17T19:17:01.895Z,74.63
2023-01-17T19:19:16.626Z,75.02
2023-01-17T19:21:30.346Z,74.70
2023-01-17T19:23:46.040Z,74.83
2023-01-17T19:26:02.536Z,74.62
2023-01-17T19:28:16.691Z,74.75
2023-01-17T19:31:19.034Z,74.54
2023-01-17T19:34:03.736Z,74.73
2023-01-17T19:36:20.174Z,74.76
2023-01-17T19:38:37.914Z,74.55
2023-01-17T19:40:55.772Z,74.76
2023-01-17T19:43:14.627Z,74.85
2023-01-17T19:45:27.054Z,74.56
2023-01-17T19:48:17.011Z,74.73
2023-01-17T19:50:30.648Z,75.66
2023-01-17T19:52:42.643Z,74.71
2023-01-17T19:54:54.841Z,74.67
2023-01-17T19:57:06.918Z,74.61
2023-01-17T19:59:20.245Z,74.74
2023-01-17T20:01:33.860Z,74.73
2023-01-17T20:03:46.548Z,74.97
2023-01-17T20:05:58.295Z,75.14
2023-01-17T20:08:11.314Z,75.52
2023-01-17T20:10:25.274Z,75.51
2023-01-17T20:12:37.010Z,75.27
2023-01-17T20:14:49.882Z,75.68
2023-01-17T20:17:02.893Z,75.40
2023-01-17T20:19:16.156Z,75.15
2023-01-17T20:21:29.763Z,75.56
2023-01-17T20:23:43.572Z,75.32
2023-01-17T20:26:01.915Z,75.90
2023-01-17T20:28:14.013Z,76.51
2023-01-17T20:30:30.311Z,76.51
2023-01-17T20:32:42.311Z,76.69
2023-01-17T20:34:54.663Z,76.78
2023-01-17T20:37:08.750Z,76.71
2023-01-17T20:39:20.438Z,76.43
2023-01-17T20:41:36.968Z,76.47
2023-01-17T20:43:52.496Z,76.75
2023-01-17T20:46:06.616Z,76.70
2023-01-17T20:48:20.895Z,77.48
2023-01-17T20:50:36.882Z,77.62
2023-01-17T20:52:49.841Z,77.43
2023-01-17T20:55:02.115Z,77.66
2023-01-17T20:57:13.906Z,77.86
2023-01-17T20:59:26.925Z,78.09
2023-01-17T21:01:39.384Z,77.79
2023-01-17T21:04:50.208Z,78.03
2023-01-17T21:07:15.116Z,77.65
2023-01-17T21:09:29.126Z,77.44
2023-01-17T21:11:48.666Z,77.60
2023-01-17T21:14:01.788Z,78.11
2023-01-17T21:16:14.400Z,77.99
2023-01-17T21:18:29.581Z,77.86
2023-01-17T21:20:41.200Z,77.50
2023-01-17T21:22:52.784Z,77.80
2023-01-17T21:25:05.397Z,77.64
2023-01-17T21:27:17.908Z,77.73
2023-01-17T21:29:31.649Z,78.36
2023-01-17T21:31:45.341Z,78.53
2023-01-17T21:34:02.701Z,78.29
2023-01-17T21:36:14.995Z,78.15
2023-01-17T21:38:26.988Z,78.43
2023-01-17T21:40:38.981Z,79.13
2023-01-17T21:42:51.284Z,78.80
2023-01-17T21:45:03.898Z,79.00
2023-01-17T21:47:15.790Z,78.39
2023-01-17T21:49:28.017Z,78.85
2023-01-17T21:51:53.833Z,78.65
2023-01-17T21:54:06.421Z,78.90
2023-01-17T21:56:36.943Z,78.38
2023-01-17T21:58:53.850Z,78.53
2023-01-17T22:01:15.962Z,78.55
2023-01-17T22:03:27.884Z,78.69
2023-01-17T22:05:39.777Z,78.85
2023-01-17T22:08:11.322Z,78.69
2023-01-17T22:10:23.115Z,78.94
2023-01-17T22:12:35.412Z,78.82
2023-01-17T22:14:46.998Z,78.87
2023-01-17T22:16:58.706Z,79.07
2023-01-17T22:19:10.476Z,78.82
2023-01-17T22:21:28.444Z,78.46
2023-01-17T22:23:45.526Z,78.53
2023-01-17T22:26:09.836Z,78.56
2023-01-17T22:28:21.597Z,78.11
2023-01-17T22:30:33.387Z,78.61
2023-01-17T22:32:45.282Z,78.96
2023-01-17T22:34:56.967Z,78.90
2023-01-17T22:37:10.320Z,78.27
2023-01-17T22:39:22.102Z,78.53
2023-01-17T22:41:35.413Z,78.89
2023-01-17T22:43:50.396Z,78.72
2023-01-17T22:46:02.409Z,79.14
2023-01-17T22:48:15.490Z,78.95
2023-01-17T22:50:31.173Z,78.76
2023-01-17T22:52:44.188Z,78.68
2023-01-17T22:54:56.088Z,78.69
2023-01-17T22:57:08.021Z,78.83
2023-01-17T22:59:19.765Z,78.52
2023-01-17T23:01:33.089Z,78.69
2023-01-17T23:03:46.563Z,78.90
2023-01-17T23:06:07.836Z,79.16
2023-01-17T23:08:22.216Z,79.08
2023-01-17T23:10:53.737Z,79.34
2023-01-17T23:13:09.890Z,79.03
2023-01-17T23:15:40.692Z,79.34
2023-01-17T23:18:11.441Z,79.38
2023-01-17T23:20:23.291Z,79.63
2023-01-17T23:22:35.488Z,79.57
2023-01-17T23:24:54.649Z,79.49
2023-01-17T23:27:25.249Z,79.63
2023-01-17T23:29:37.385Z,79.99
2023-01-17T23:31:49.476Z,80.03
2023-01-17T23:34:01.063Z,80.12
2023-01-17T23:36:12.757Z,79.91
2023-01-17T23:38:29.558Z,79.93
2023-01-17T23:40:42.582Z,79.75
2023-01-17T23:43:13.206Z,80.09
2023-01-17T23:45:25.253Z,80.16
2023-01-17T23:47:37.194Z,79.86
2023-01-17T23:49:49.028Z,80.12
2023-01-17T23:52:00.671Z,80.01
2023-01-17T23:54:13.079Z,80.27
2023-01-17T23:56:25.077Z,80.07
2023-01-17T23:58:37.176Z,79.94
